sensor_id;sensor_type;location;lat;lon;timestamp;temperature;humidity
45115;DHT22;30877;43.706;10.780;2024-03-08T00:00:40;9.40;96.70
45115;DHT22;30877;43.706;10.780;2024-03-08T00:03:10;9.40;96.70
45115;DHT22;30877;43.706;10.780;2024-03-08T00:05:40;9.40;96.70
45115;DHT22;30877;43.706;10.780;2024-03-08T00:08:09;9.30;96.70
45115;DHT22;30877;43.706;10.780;2024-03-08T00:10:38;9.30;96.70
45115;DHT22;30877;43.706;10.780;2024-03-08T00:13:09;9.30;96.70
45115;DHT22;30877;43.706;10.780;2024-03-08T00:15:38;9.30;96.70
45115;DHT22;30877;43.706;10.780;2024-03-08T00:18:08;9.20;96.70
45115;DHT22;30877;43.706;10.780;2024-03-08T00:20:36;9.20;96.70
45115;DHT22;30877;43.706;10.780;2024-03-08T00:23:04;9.20;96.70
45115;DHT22;30877;43.706;10.780;2024-03-08T00:25:35;9.20;96.70
45115;DHT22;30877;43.706;10.780;2024-03-08T00:28:04;9.10;96.70
45115;DHT22;30877;43.706;10.780;2024-03-08T00:30:36;9.10;96.70
45115;DHT22;30877;43.706;10.780;2024-03-08T00:33:06;9.10;96.70
45115;DHT22;30877;43.706;10.780;2024-03-08T00:35:34;9.10;96.70
45115;DHT22;30877;43.706;10.780;2024-03-08T00:38:03;9.00;96.70
45115;DHT22;30877;43.706;10.780;2024-03-08T00:40:31;9.00;96.70
45115;DHT22;30877;43.706;10.780;2024-03-08T00:43:00;8.90;96.70
45115;DHT22;30877;43.706;10.780;2024-03-08T00:45:28;8.90;96.70
45115;DHT22;30877;43.706;10.780;2024-03-08T00:47:59;8.90;96.70
45115;DHT22;30877;43.706;10.780;2024-03-08T00:50:28;8.90;96.70
45115;DHT22;30877;43.706;10.780;2024-03-08T00:52:57;8.90;96.70
45115;DHT22;30877;43.706;10.780;2024-03-08T00:55:25;8.80;96.70
45115;DHT22;30877;43.706;10.780;2024-03-08T00:57:55;8.80;96.70
45115;DHT22;30877;43.706;10.780;2024-03-08T01:00:24;8.80;96.70
45115;DHT22;30877;43.706;10.780;2024-03-08T01:02:53;8.80;96.70
45115;DHT22;30877;43.706;10.780;2024-03-08T01:05:24;8.80;96.70
45115;DHT22;30877;43.706;10.780;2024-03-08T01:07:53;8.80;96.70
45115;DHT22;30877;43.706;10.780;2024-03-08T01:10:22;8.70;96.70
45115;DHT22;30877;43.706;10.780;2024-03-08T01:12:51;8.70;96.70
45115;DHT22;30877;43.706;10.780;2024-03-08T01:15:20;8.70;96.70
45115;DHT22;30877;43.706;10.780;2024-03-08T01:17:49;8.70;96.70
45115;DHT22;30877;43.706;10.780;2024-03-08T01:20:20;8.70;96.70
45115;DHT22;30877;43.706;10.780;2024-03-08T01:22:50;8.70;96.70
45115;DHT22;30877;43.706;10.780;2024-03-08T01:25:18;8.70;96.70
45115;DHT22;30877;43.706;10.780;2024-03-08T01:27:48;8.60;96.70
45115;DHT22;30877;43.706;10.780;2024-03-08T01:30:17;8.60;96.70
45115;DHT22;30877;43.706;10.780;2024-03-08T01:32:46;8.60;96.70
45115;DHT22;30877;43.706;10.780;2024-03-08T01:35:17;8.60;96.70
45115;DHT22;30877;43.706;10.780;2024-03-08T01:37:46;8.50;96.70
45115;DHT22;30877;43.706;10.780;2024-03-08T01:40:18;8.50;96.70
45115;DHT22;30877;43.706;10.780;2024-03-08T01:42:46;8.50;96.70
45115;DHT22;30877;43.706;10.780;2024-03-08T01:45:15;8.50;96.70
45115;DHT22;30877;43.706;10.780;2024-03-08T01:47:44;8.50;96.70
45115;DHT22;30877;43.706;10.780;2024-03-08T01:50:13;8.50;96.70
45115;DHT22;30877;43.706;10.780;2024-03-08T01:52:42;8.50;96.70
45115;DHT22;30877;43.706;10.780;2024-03-08T01:55:11;8.50;96.70
45115;DHT22;30877;43.706;10.780;2024-03-08T01:57:45;8.50;96.70
45115;DHT22;30877;43.706;10.780;2024-03-08T02:00:17;8.60;96.70
45115;DHT22;30877;43.706;10.780;2024-03-08T02:02:47;8.50;96.70
45115;DHT22;30877;43.706;10.780;2024-03-08T02:05:18;8.50;96.70
45115;DHT22;30877;43.706;10.780;2024-03-08T02:07:49;8.50;96.70
45115;DHT22;30877;43.706;10.780;2024-03-08T02:10:18;8.50;96.70
45115;DHT22;30877;43.706;10.780;2024-03-08T02:12:48;8.50;96.70
45115;DHT22;30877;43.706;10.780;2024-03-08T02:15:17;8.40;96.70
45115;DHT22;30877;43.706;10.780;2024-03-08T02:17:46;8.40;96.70
45115;DHT22;30877;43.706;10.780;2024-03-08T02:20:17;8.30;96.70
45115;DHT22;30877;43.706;10.780;2024-03-08T02:22:48;8.30;96.70
45115;DHT22;30877;43.706;10.780;2024-03-08T02:25:19;8.30;96.70
45115;DHT22;30877;43.706;10.780;2024-03-08T02:27:47;8.20;96.70
45115;DHT22;30877;43.706;10.780;2024-03-08T02:30:16;8.10;96.70
45115;DHT22;30877;43.706;10.780;2024-03-08T02:32:46;8.10;96.70
45115;DHT22;30877;43.706;10.780;2024-03-08T02:35:16;8.10;96.70
45115;DHT22;30877;43.706;10.780;2024-03-08T02:37:44;8.10;96.70
45115;DHT22;30877;43.706;10.780;2024-03-08T02:40:19;8.10;96.70
45115;DHT22;30877;43.706;10.780;2024-03-08T02:42:47;8.10;96.70
45115;DHT22;30877;43.706;10.780;2024-03-08T02:45:17;8.00;96.70
45115;DHT22;30877;43.706;10.780;2024-03-08T02:47:46;7.90;96.70
45115;DHT22;30877;43.706;10.780;2024-03-08T02:50:17;7.90;96.70
45115;DHT22;30877;43.706;10.780;2024-03-08T02:52:46;7.90;96.70
45115;DHT22;30877;43.706;10.780;2024-03-08T02:55:18;7.80;96.70
45115;DHT22;30877;43.706;10.780;2024-03-08T02:57:48;7.80;96.70
45115;DHT22;30877;43.706;10.780;2024-03-08T03:00:18;7.80;96.70
45115;DHT22;30877;43.706;10.780;2024-03-08T03:02:47;7.80;96.70
45115;DHT22;30877;43.706;10.780;2024-03-08T03:05:18;7.80;96.70
45115;DHT22;30877;43.706;10.780;2024-03-08T03:07:47;7.80;96.70
45115;DHT22;30877;43.706;10.780;2024-03-08T03:10:21;7.80;96.70
45115;DHT22;30877;43.706;10.780;2024-03-08T03:12:50;7.80;96.70
45115;DHT22;30877;43.706;10.780;2024-03-08T03:15:20;7.70;96.70
45115;DHT22;30877;43.706;10.780;2024-03-08T03:17:49;7.70;96.70
45115;DHT22;30877;43.706;10.780;2024-03-08T03:20:22;7.70;96.70
45115;DHT22;30877;43.706;10.780;2024-03-08T03:22:54;7.70;96.70
45115;DHT22;30877;43.706;10.780;2024-03-08T03:25:26;7.60;96.70
45115;DHT22;30877;43.706;10.780;2024-03-08T03:28:01;7.60;96.70
45115;DHT22;30877;43.706;10.780;2024-03-08T03:30:30;7.50;96.70
45115;DHT22;30877;43.706;10.780;2024-03-08T03:33:02;7.50;96.70
45115;DHT22;30877;43.706;10.780;2024-03-08T03:35:36;7.50;96.70
45115;DHT22;30877;43.706;10.780;2024-03-08T03:38:06;7.50;96.70
45115;DHT22;30877;43.706;10.780;2024-03-08T03:40:39;7.60;96.70
45115;DHT22;30877;43.706;10.780;2024-03-08T03:43:10;7.60;96.70
45115;DHT22;30877;43.706;10.780;2024-03-08T03:45:40;7.60;96.70
45115;DHT22;30877;43.706;10.780;2024-03-08T03:48:10;7.40;96.70
45115;DHT22;30877;43.706;10.780;2024-03-08T03:50:40;7.40;96.70
45115;DHT22;30877;43.706;10.780;2024-03-08T03:53:09;7.50;96.70
45115;DHT22;30877;43.706;10.780;2024-03-08T03:55:39;7.50;96.70
45115;DHT22;30877;43.706;10.780;2024-03-08T03:58:10;7.50;96.70
45115;DHT22;30877;43.706;10.780;2024-03-08T04:00:41;7.60;96.70
45115;DHT22;30877;43.706;10.780;2024-03-08T04:03:11;7.60;96.70
45115;DHT22;30877;43.706;10.780;2024-03-08T04:05:40;7.70;96.70
45115;DHT22;30877;43.706;10.780;2024-03-08T04:08:09;7.60;96.70
45115;DHT22;30877;43.706;10.780;2024-03-08T04:10:39;7.50;96.70
45115;DHT22;30877;43.706;10.780;2024-03-08T04:13:10;7.40;96.70
45115;DHT22;30877;43.706;10.780;2024-03-08T04:15:39;7.40;96.70
45115;DHT22;30877;43.706;10.780;2024-03-08T04:18:10;7.40;96.70
45115;DHT22;30877;43.706;10.780;2024-03-08T04:20:40;7.40;96.70
45115;DHT22;30877;43.706;10.780;2024-03-08T04:23:11;7.30;96.70
45115;DHT22;30877;43.706;10.780;2024-03-08T04:25:41;7.30;96.70
45115;DHT22;30877;43.706;10.780;2024-03-08T04:28:10;7.30;96.70
45115;DHT22;30877;43.706;10.780;2024-03-08T04:30:43;7.30;96.70
45115;DHT22;30877;43.706;10.780;2024-03-08T04:33:14;7.40;96.70
45115;DHT22;30877;43.706;10.780;2024-03-08T04:35:45;7.40;96.70
45115;DHT22;30877;43.706;10.780;2024-03-08T04:38:14;7.40;96.70
45115;DHT22;30877;43.706;10.780;2024-03-08T04:40:45;7.40;96.70
45115;DHT22;30877;43.706;10.780;2024-03-08T04:43:13;7.40;96.70
45115;DHT22;30877;43.706;10.780;2024-03-08T04:45:42;7.50;96.70
45115;DHT22;30877;43.706;10.780;2024-03-08T04:48:12;7.50;96.70
45115;DHT22;30877;43.706;10.780;2024-03-08T04:50:42;7.40;96.70
45115;DHT22;30877;43.706;10.780;2024-03-08T04:53:12;7.30;96.70
45115;DHT22;30877;43.706;10.780;2024-03-08T04:55:40;7.30;96.70
45115;DHT22;30877;43.706;10.780;2024-03-08T04:58:11;7.30;96.70
45115;DHT22;30877;43.706;10.780;2024-03-08T05:00:39;7.30;96.70
45115;DHT22;30877;43.706;10.780;2024-03-08T05:03:10;7.30;96.70
45115;DHT22;30877;43.706;10.780;2024-03-08T05:05:40;7.20;96.70
45115;DHT22;30877;43.706;10.780;2024-03-08T05:08:10;7.20;96.70
45115;DHT22;30877;43.706;10.780;2024-03-08T05:10:40;7.20;96.70
45115;DHT22;30877;43.706;10.780;2024-03-08T05:13:10;7.20;96.70
45115;DHT22;30877;43.706;10.780;2024-03-08T05:15:40;7.20;96.70
45115;DHT22;30877;43.706;10.780;2024-03-08T05:18:10;7.20;96.70
45115;DHT22;30877;43.706;10.780;2024-03-08T05:20:40;7.20;96.70
45115;DHT22;30877;43.706;10.780;2024-03-08T05:23:09;7.20;96.70
45115;DHT22;30877;43.706;10.780;2024-03-08T05:25:38;7.10;96.70
45115;DHT22;30877;43.706;10.780;2024-03-08T05:28:06;7.10;96.70
45115;DHT22;30877;43.706;10.780;2024-03-08T05:30:40;7.00;96.70
45115;DHT22;30877;43.706;10.780;2024-03-08T05:33:08;7.00;96.70
45115;DHT22;30877;43.706;10.780;2024-03-08T05:35:38;7.00;96.70
45115;DHT22;30877;43.706;10.780;2024-03-08T05:38:08;7.00;96.70
45115;DHT22;30877;43.706;10.780;2024-03-08T05:40:36;7.00;96.70
45115;DHT22;30877;43.706;10.780;2024-03-08T05:43:04;7.00;96.70
45115;DHT22;30877;43.706;10.780;2024-03-08T05:45:33;7.00;96.70
45115;DHT22;30877;43.706;10.780;2024-03-08T05:48:05;6.90;96.70
45115;DHT22;30877;43.706;10.780;2024-03-08T05:50:36;6.90;96.70
45115;DHT22;30877;43.706;10.780;2024-03-08T05:53:06;6.90;96.70
45115;DHT22;30877;43.706;10.780;2024-03-08T05:55:37;6.90;96.70
45115;DHT22;30877;43.706;10.780;2024-03-08T05:58:06;6.90;96.70
45115;DHT22;30877;43.706;10.780;2024-03-08T06:00:38;6.90;96.70
45115;DHT22;30877;43.706;10.780;2024-03-08T06:03:09;7.00;96.70
45115;DHT22;30877;43.706;10.780;2024-03-08T06:05:40;7.10;96.70
45115;DHT22;30877;43.706;10.780;2024-03-08T06:08:10;7.10;96.70
45115;DHT22;30877;43.706;10.780;2024-03-08T06:10:39;7.00;96.70
45115;DHT22;30877;43.706;10.780;2024-03-08T06:13:07;7.10;96.70
45115;DHT22;30877;43.706;10.780;2024-03-08T06:15:37;7.00;96.70
45115;DHT22;30877;43.706;10.780;2024-03-08T06:18:06;7.00;96.70
45115;DHT22;30877;43.706;10.780;2024-03-08T06:20:37;6.90;96.70
45115;DHT22;30877;43.706;10.780;2024-03-08T06:23:07;6.90;96.70
45115;DHT22;30877;43.706;10.780;2024-03-08T06:25:37;6.90;96.70
45115;DHT22;30877;43.706;10.780;2024-03-08T06:28:06;6.90;96.70
45115;DHT22;30877;43.706;10.780;2024-03-08T06:30:36;6.90;96.70
45115;DHT22;30877;43.706;10.780;2024-03-08T06:33:05;7.00;96.70
45115;DHT22;30877;43.706;10.780;2024-03-08T06:35:33;7.00;96.70
45115;DHT22;30877;43.706;10.780;2024-03-08T06:38:07;7.00;96.70
45115;DHT22;30877;43.706;10.780;2024-03-08T06:40:35;7.00;96.70
45115;DHT22;30877;43.706;10.780;2024-03-08T06:43:04;7.10;96.70
45115;DHT22;30877;43.706;10.780;2024-03-08T06:45:35;7.10;96.70
45115;DHT22;30877;43.706;10.780;2024-03-08T06:48:07;7.30;96.70
45115;DHT22;30877;43.706;10.780;2024-03-08T06:50:39;7.40;96.70
45115;DHT22;30877;43.706;10.780;2024-03-08T06:53:10;7.40;96.70
45115;DHT22;30877;43.706;10.780;2024-03-08T06:55:39;7.40;96.70
45115;DHT22;30877;43.706;10.780;2024-03-08T06:58:09;7.50;96.70
45115;DHT22;30877;43.706;10.780;2024-03-08T07:00:40;7.50;96.70
45115;DHT22;30877;43.706;10.780;2024-03-08T07:03:12;7.60;96.70
45115;DHT22;30877;43.706;10.780;2024-03-08T07:05:45;7.60;96.70
45115;DHT22;30877;43.706;10.780;2024-03-08T07:08:16;7.60;96.70
45115;DHT22;30877;43.706;10.780;2024-03-08T07:10:45;7.60;96.70
45115;DHT22;30877;43.706;10.780;2024-03-08T07:13:14;7.60;96.70
45115;DHT22;30877;43.706;10.780;2024-03-08T07:15:43;7.70;96.70
45115;DHT22;30877;43.706;10.780;2024-03-08T07:18:13;7.80;96.70
45115;DHT22;30877;43.706;10.780;2024-03-08T07:20:43;7.80;96.70
45115;DHT22;30877;43.706;10.780;2024-03-08T07:23:15;7.80;96.70
45115;DHT22;30877;43.706;10.780;2024-03-08T07:26:06;7.90;96.70
45115;DHT22;30877;43.706;10.780;2024-03-08T07:28:36;7.90;96.70
45115;DHT22;30877;43.706;10.780;2024-03-08T07:31:04;8.00;96.70
45115;DHT22;30877;43.706;10.780;2024-03-08T07:33:51;8.10;96.70
45115;DHT22;30877;43.706;10.780;2024-03-08T07:36:19;8.20;96.70
45115;DHT22;30877;43.706;10.780;2024-03-08T07:38:53;8.20;96.70
45115;DHT22;30877;43.706;10.780;2024-03-08T07:41:22;8.40;96.70
45115;DHT22;30877;43.706;10.780;2024-03-08T07:43:51;8.50;96.70
45115;DHT22;30877;43.706;10.780;2024-03-08T07:46:22;8.60;96.70
45115;DHT22;30877;43.706;10.780;2024-03-08T07:48:51;8.70;96.70
45115;DHT22;30877;43.706;10.780;2024-03-08T07:51:19;8.80;96.70
45115;DHT22;30877;43.706;10.780;2024-03-08T07:53:49;8.90;96.70
45115;DHT22;30877;43.706;10.780;2024-03-08T07:56:19;9.00;96.70
45115;DHT22;30877;43.706;10.780;2024-03-08T07:58:49;9.00;96.70
45115;DHT22;30877;43.706;10.780;2024-03-08T08:01:19;9.10;96.70
45115;DHT22;30877;43.706;10.780;2024-03-08T08:03:47;9.20;96.70
45115;DHT22;30877;43.706;10.780;2024-03-08T08:06:18;9.20;96.70
45115;DHT22;30877;43.706;10.780;2024-03-08T08:08:48;9.30;96.70
45115;DHT22;30877;43.706;10.780;2024-03-08T08:11:20;9.30;96.70
45115;DHT22;30877;43.706;10.780;2024-03-08T08:13:48;9.50;96.70
45115;DHT22;30877;43.706;10.780;2024-03-08T08:16:17;9.50;96.70
45115;DHT22;30877;43.706;10.780;2024-03-08T08:18:45;9.60;96.70
45115;DHT22;30877;43.706;10.780;2024-03-08T08:21:16;9.70;96.70
45115;DHT22;30877;43.706;10.780;2024-03-08T08:23:46;9.70;96.70
45115;DHT22;30877;43.706;10.780;2024-03-08T08:26:15;9.80;96.70
45115;DHT22;30877;43.706;10.780;2024-03-08T08:28:47;9.90;96.70
45115;DHT22;30877;43.706;10.780;2024-03-08T08:31:16;9.90;96.70
45115;DHT22;30877;43.706;10.780;2024-03-08T08:33:44;10.10;96.70
45115;DHT22;30877;43.706;10.780;2024-03-08T08:36:16;10.10;96.70
45115;DHT22;30877;43.706;10.780;2024-03-08T08:38:44;10.20;96.70
45115;DHT22;30877;43.706;10.780;2024-03-08T08:41:15;10.30;96.70
45115;DHT22;30877;43.706;10.780;2024-03-08T08:43:45;10.40;96.70
45115;DHT22;30877;43.706;10.780;2024-03-08T08:46:31;10.50;96.70
45115;DHT22;30877;43.706;10.780;2024-03-08T08:49:04;10.60;96.70
45115;DHT22;30877;43.706;10.780;2024-03-08T08:51:34;10.70;96.70
45115;DHT22;30877;43.706;10.780;2024-03-08T08:54:04;10.80;96.70
45115;DHT22;30877;43.706;10.780;2024-03-08T08:56:38;10.90;96.70
45115;DHT22;30877;43.706;10.780;2024-03-08T08:59:08;11.00;96.70
45115;DHT22;30877;43.706;10.780;2024-03-08T09:01:39;11.20;96.70
45115;DHT22;30877;43.706;10.780;2024-03-08T09:04:08;11.30;96.70
45115;DHT22;30877;43.706;10.780;2024-03-08T09:06:39;11.40;96.70
45115;DHT22;30877;43.706;10.780;2024-03-08T09:09:12;11.50;96.70
45115;DHT22;30877;43.706;10.780;2024-03-08T09:11:42;11.60;96.70
45115;DHT22;30877;43.706;10.780;2024-03-08T09:14:14;11.70;96.70
45115;DHT22;30877;43.706;10.780;2024-03-08T09:16:48;11.80;96.70
45115;DHT22;30877;43.706;10.780;2024-03-08T09:19:16;12.00;96.70
45115;DHT22;30877;43.706;10.780;2024-03-08T09:21:46;12.10;96.70
45115;DHT22;30877;43.706;10.780;2024-03-08T09:24:15;12.20;96.70
45115;DHT22;30877;43.706;10.780;2024-03-08T09:26:46;12.30;96.70
45115;DHT22;30877;43.706;10.780;2024-03-08T09:29:15;12.50;96.70
45115;DHT22;30877;43.706;10.780;2024-03-08T09:31:44;12.60;96.70
45115;DHT22;30877;43.706;10.780;2024-03-08T09:34:16;12.70;96.70
45115;DHT22;30877;43.706;10.780;2024-03-08T09:36:53;12.70;96.70
45115;DHT22;30877;43.706;10.780;2024-03-08T09:39:23;12.90;96.70
45115;DHT22;30877;43.706;10.780;2024-03-08T09:41:55;13.00;96.70
45115;DHT22;30877;43.706;10.780;2024-03-08T09:44:24;13.10;96.70
45115;DHT22;30877;43.706;10.780;2024-03-08T09:46:55;13.10;96.70
45115;DHT22;30877;43.706;10.780;2024-03-08T09:49:27;13.20;96.70
45115;DHT22;30877;43.706;10.780;2024-03-08T09:51:56;13.50;96.70
45115;DHT22;30877;43.706;10.780;2024-03-08T09:54:25;13.40;96.70
45115;DHT22;30877;43.706;10.780;2024-03-08T09:56:55;13.40;96.70
45115;DHT22;30877;43.706;10.780;2024-03-08T09:59:24;13.50;96.70
45115;DHT22;30877;43.706;10.780;2024-03-08T10:01:54;13.50;96.70
45115;DHT22;30877;43.706;10.780;2024-03-08T10:04:30;13.70;96.70
45115;DHT22;30877;43.706;10.780;2024-03-08T10:07:01;13.80;96.70
45115;DHT22;30877;43.706;10.780;2024-03-08T10:09:31;13.90;96.70
45115;DHT22;30877;43.706;10.780;2024-03-08T10:12:01;13.90;96.70
45115;DHT22;30877;43.706;10.780;2024-03-08T10:14:30;13.90;96.70
45115;DHT22;30877;43.706;10.780;2024-03-08T10:16:59;13.90;96.70
45115;DHT22;30877;43.706;10.780;2024-03-08T10:19:30;14.00;96.70
45115;DHT22;30877;43.706;10.780;2024-03-08T10:21:59;14.10;96.70
45115;DHT22;30877;43.706;10.780;2024-03-08T10:24:28;14.10;96.70
45115;DHT22;30877;43.706;10.780;2024-03-08T10:26:59;14.10;96.70
45115;DHT22;30877;43.706;10.780;2024-03-08T10:29:28;14.10;96.70
45115;DHT22;30877;43.706;10.780;2024-03-08T10:31:59;14.20;96.70
45115;DHT22;30877;43.706;10.780;2024-03-08T10:34:29;14.30;96.70
45115;DHT22;30877;43.706;10.780;2024-03-08T10:37:01;14.30;96.70
45115;DHT22;30877;43.706;10.780;2024-03-08T10:39:35;14.50;96.70
45115;DHT22;30877;43.706;10.780;2024-03-08T10:42:06;14.60;96.70
45115;DHT22;30877;43.706;10.780;2024-03-08T10:44:49;14.80;96.70
45115;DHT22;30877;43.706;10.780;2024-03-08T10:47:22;14.90;96.70
45115;DHT22;30877;43.706;10.780;2024-03-08T10:50:08;14.80;96.70
45115;DHT22;30877;43.706;10.780;2024-03-08T10:52:41;14.90;96.70
45115;DHT22;30877;43.706;10.780;2024-03-08T10:55:13;14.90;96.70
45115;DHT22;30877;43.706;10.780;2024-03-08T10:57:43;14.90;96.70
45115;DHT22;30877;43.706;10.780;2024-03-08T11:00:12;15.00;96.70
45115;DHT22;30877;43.706;10.780;2024-03-08T11:02:44;15.20;96.70
45115;DHT22;30877;43.706;10.780;2024-03-08T11:05:32;15.40;96.70
45115;DHT22;30877;43.706;10.780;2024-03-08T11:08:17;15.60;96.70
45115;DHT22;30877;43.706;10.780;2024-03-08T11:10:50;15.70;96.70
45115;DHT22;30877;43.706;10.780;2024-03-08T11:13:34;15.80;96.70
45115;DHT22;30877;43.706;10.780;2024-03-08T11:16:07;15.80;96.70
45115;DHT22;30877;43.706;10.780;2024-03-08T11:18:38;15.60;96.70
45115;DHT22;30877;43.706;10.780;2024-03-08T11:21:09;15.30;96.70
45115;DHT22;30877;43.706;10.780;2024-03-08T11:23:42;15.40;96.70
45115;DHT22;30877;43.706;10.780;2024-03-08T11:26:18;15.40;96.70
45115;DHT22;30877;43.706;10.780;2024-03-08T11:28:49;15.50;96.70
45115;DHT22;30877;43.706;10.780;2024-03-08T11:31:24;15.50;96.70
45115;DHT22;30877;43.706;10.780;2024-03-08T11:33:56;15.40;96.70
45115;DHT22;30877;43.706;10.780;2024-03-08T11:36:27;15.20;96.70
45115;DHT22;30877;43.706;10.780;2024-03-08T11:38:58;15.10;96.70
45115;DHT22;30877;43.706;10.780;2024-03-08T11:41:31;15.10;96.70
45115;DHT22;30877;43.706;10.780;2024-03-08T11:44:04;15.00;96.70
45115;DHT22;30877;43.706;10.780;2024-03-08T11:46:37;15.00;96.70
45115;DHT22;30877;43.706;10.780;2024-03-08T11:49:11;15.00;96.70
45115;DHT22;30877;43.706;10.780;2024-03-08T11:51:44;15.10;96.70
45115;DHT22;30877;43.706;10.780;2024-03-08T11:54:14;15.40;96.70
45115;DHT22;30877;43.706;10.780;2024-03-08T11:56:44;15.80;96.70
45115;DHT22;30877;43.706;10.780;2024-03-08T11:59:18;16.00;96.70
45115;DHT22;30877;43.706;10.780;2024-03-08T12:01:59;16.00;96.70
45115;DHT22;30877;43.706;10.780;2024-03-08T12:04:28;15.80;96.70
45115;DHT22;30877;43.706;10.780;2024-03-08T12:07:12;16.10;96.70
45115;DHT22;30877;43.706;10.780;2024-03-08T12:09:43;15.90;96.70
45115;DHT22;30877;43.706;10.780;2024-03-08T12:12:16;15.70;96.70
45115;DHT22;30877;43.706;10.780;2024-03-08T12:14:45;15.70;96.70
45115;DHT22;30877;43.706;10.780;2024-03-08T12:17:14;15.70;96.70
45115;DHT22;30877;43.706;10.780;2024-03-08T12:19:46;15.70;96.70
45115;DHT22;30877;43.706;10.780;2024-03-08T12:22:25;15.70;96.70
45115;DHT22;30877;43.706;10.780;2024-03-08T12:25:06;15.80;96.70
45115;DHT22;30877;43.706;10.780;2024-03-08T12:27:38;15.90;96.70
45115;DHT22;30877;43.706;10.780;2024-03-08T12:30:17;15.90;96.70
45115;DHT22;30877;43.706;10.780;2024-03-08T12:32:51;15.90;96.70
45115;DHT22;30877;43.706;10.780;2024-03-08T12:35:21;15.70;96.70
45115;DHT22;30877;43.706;10.780;2024-03-08T12:37:53;15.60;96.70
45115;DHT22;30877;43.706;10.780;2024-03-08T12:40:26;15.60;96.70
45115;DHT22;30877;43.706;10.780;2024-03-08T12:42:58;15.70;96.70
45115;DHT22;30877;43.706;10.780;2024-03-08T12:45:28;15.70;96.70
45115;DHT22;30877;43.706;10.780;2024-03-08T12:47:56;15.80;96.70
45115;DHT22;30877;43.706;10.780;2024-03-08T12:50:28;15.90;96.70
45115;DHT22;30877;43.706;10.780;2024-03-08T12:53:00;16.10;96.70
45115;DHT22;30877;43.706;10.780;2024-03-08T12:55:32;16.30;96.70
45115;DHT22;30877;43.706;10.780;2024-03-08T12:58:04;16.40;96.70
45115;DHT22;30877;43.706;10.780;2024-03-08T13:00:35;16.60;96.70
45115;DHT22;30877;43.706;10.780;2024-03-08T13:03:11;16.70;96.70
45115;DHT22;30877;43.706;10.780;2024-03-08T13:05:40;16.60;96.70
45115;DHT22;30877;43.706;10.780;2024-03-08T13:08:13;16.50;96.70
45115;DHT22;30877;43.706;10.780;2024-03-08T13:10:43;16.60;96.70
45115;DHT22;30877;43.706;10.780;2024-03-08T13:13:13;16.70;96.70
45115;DHT22;30877;43.706;10.780;2024-03-08T13:15:45;16.70;96.70
45115;DHT22;30877;43.706;10.780;2024-03-08T13:18:14;16.60;96.70
45115;DHT22;30877;43.706;10.780;2024-03-08T13:20:46;16.70;96.70
45115;DHT22;30877;43.706;10.780;2024-03-08T13:23:23;16.70;96.70
45115;DHT22;30877;43.706;10.780;2024-03-08T13:25:52;16.70;96.70
45115;DHT22;30877;43.706;10.780;2024-03-08T13:28:21;16.90;96.70
45115;DHT22;30877;43.706;10.780;2024-03-08T13:30:57;17.00;96.70
45115;DHT22;30877;43.706;10.780;2024-03-08T13:33:31;17.10;96.70
45115;DHT22;30877;43.706;10.780;2024-03-08T13:36:00;16.90;96.70
45115;DHT22;30877;43.706;10.780;2024-03-08T13:38:34;16.80;96.70
45115;DHT22;30877;43.706;10.780;2024-03-08T13:41:05;16.80;96.70
45115;DHT22;30877;43.706;10.780;2024-03-08T13:43:34;16.80;96.70
45115;DHT22;30877;43.706;10.780;2024-03-08T13:46:04;16.70;96.70
45115;DHT22;30877;43.706;10.780;2024-03-08T13:48:35;16.80;96.70
45115;DHT22;30877;43.706;10.780;2024-03-08T13:51:05;16.70;96.70
45115;DHT22;30877;43.706;10.780;2024-03-08T13:53:36;16.70;96.70
45115;DHT22;30877;43.706;10.780;2024-03-08T13:56:04;16.60;96.70
45115;DHT22;30877;43.706;10.780;2024-03-08T13:58:34;16.60;96.70
45115;DHT22;30877;43.706;10.780;2024-03-08T14:01:04;16.50;96.70
45115;DHT22;30877;43.706;10.780;2024-03-08T14:03:35;16.30;96.70
45115;DHT22;30877;43.706;10.780;2024-03-08T14:06:09;16.20;96.70
45115;DHT22;30877;43.706;10.780;2024-03-08T14:08:50;16.10;96.70
45115;DHT22;30877;43.706;10.780;2024-03-08T14:11:21;16.00;96.70
45115;DHT22;30877;43.706;10.780;2024-03-08T14:13:54;15.90;96.70
45115;DHT22;30877;43.706;10.780;2024-03-08T14:16:24;15.80;96.70
45115;DHT22;30877;43.706;10.780;2024-03-08T14:18:53;15.70;96.70
45115;DHT22;30877;43.706;10.780;2024-03-08T14:21:21;15.70;96.70
45115;DHT22;30877;43.706;10.780;2024-03-08T14:23:52;15.70;96.70
45115;DHT22;30877;43.706;10.780;2024-03-08T14:26:20;15.70;96.70
45115;DHT22;30877;43.706;10.780;2024-03-08T14:28:51;15.60;96.70
45115;DHT22;30877;43.706;10.780;2024-03-08T14:31:23;15.60;96.70
45115;DHT22;30877;43.706;10.780;2024-03-08T14:33:55;15.60;96.70
45115;DHT22;30877;43.706;10.780;2024-03-08T14:36:26;15.70;96.70
45115;DHT22;30877;43.706;10.780;2024-03-08T14:39:01;15.60;96.70
45115;DHT22;30877;43.706;10.780;2024-03-08T14:41:32;15.60;96.70
45115;DHT22;30877;43.706;10.780;2024-03-08T14:44:02;15.50;96.70
45115;DHT22;30877;43.706;10.780;2024-03-08T14:46:31;15.50;96.70
45115;DHT22;30877;43.706;10.780;2024-03-08T14:48:59;15.40;96.70
45115;DHT22;30877;43.706;10.780;2024-03-08T14:51:29;15.50;96.70
45115;DHT22;30877;43.706;10.780;2024-03-08T14:53:58;15.50;96.70
45115;DHT22;30877;43.706;10.780;2024-03-08T14:56:31;15.50;96.70
45115;DHT22;30877;43.706;10.780;2024-03-08T14:58:59;15.50;96.70
45115;DHT22;30877;43.706;10.780;2024-03-08T15:01:31;15.60;96.70
45115;DHT22;30877;43.706;10.780;2024-03-08T15:04:01;15.50;96.70
45115;DHT22;30877;43.706;10.780;2024-03-08T15:06:37;15.50;96.70
45115;DHT22;30877;43.706;10.780;2024-03-08T15:09:05;15.40;96.70
45115;DHT22;30877;43.706;10.780;2024-03-08T15:11:47;15.30;96.70
45115;DHT22;30877;43.706;10.780;2024-03-08T15:14:18;15.30;96.70
45115;DHT22;30877;43.706;10.780;2024-03-08T15:16:48;15.20;96.70
45115;DHT22;30877;43.706;10.780;2024-03-08T15:19:19;15.10;96.70
45115;DHT22;30877;43.706;10.780;2024-03-08T15:21:52;15.10;96.70
45115;DHT22;30877;43.706;10.780;2024-03-08T15:24:24;15.00;96.70
45115;DHT22;30877;43.706;10.780;2024-03-08T15:26:58;15.00;96.70
45115;DHT22;30877;43.706;10.780;2024-03-08T15:29:32;14.90;96.70
45115;DHT22;30877;43.706;10.780;2024-03-08T15:32:04;14.80;96.70
45115;DHT22;30877;43.706;10.780;2024-03-08T15:34:33;14.70;96.70
45115;DHT22;30877;43.706;10.780;2024-03-08T15:37:06;14.60;96.70
45115;DHT22;30877;43.706;10.780;2024-03-08T15:39:36;14.30;96.70
45115;DHT22;30877;43.706;10.780;2024-03-08T15:42:08;13.90;96.70
45115;DHT22;30877;43.706;10.780;2024-03-08T15:44:40;13.70;96.70
45115;DHT22;30877;43.706;10.780;2024-03-08T15:47:13;13.50;96.70